sensor_id;sensor_type;location;lat;lon;timestamp;pressure;altitude;pressure_sealevel;temperature;humidity
46690;BME280;32423;45.398;10.874;2023-02-11T00:01:23;102805.69;;;3.24;40.88
46690;BME280;32423;45.398;10.874;2023-02-11T00:04:15;102810.00;;;2.80;42.51
46690;BME280;32423;45.398;10.874;2023-02-11T00:07:07;102807.41;;;3.12;42.36
46690;BME280;32423;45.398;10.874;2023-02-11T00:09:59;102813.69;;;3.30;42.11
46690;BME280;32423;45.398;10.874;2023-02-11T00:12:51;102802.19;;;3.55;42.13
46690;BME280;32423;45.398;10.874;2023-02-11T00:15:40;102808.75;;;4.15;41.61
46690;BME280;32423;45.398;10.874;2023-02-11T00:18:32;102809.25;;;4.48;40.78
46690;BME280;32423;45.398;10.874;2023-02-11T00:21:24;102811.59;;;4.45;40.26
46690;BME280;32423;45.398;10.874;2023-02-11T00:24:16;102807.44;;;4.42;40.00
46690;BME280;32423;45.398;10.874;2023-02-11T00:27:09;102808.44;;;4.48;39.62
46690;BME280;32423;45.398;10.874;2023-02-11T00:29:58;102808.72;;;4.40;40.13
46690;BME280;32423;45.398;10.874;2023-02-11T00:32:50;102808.06;;;4.26;39.51
46690;BME280;32423;45.398;10.874;2023-02-11T00:35:42;102808.22;;;4.31;39.27
46690;BME280;32423;45.398;10.874;2023-02-11T00:38:34;102803.16;;;4.16;39.59
46690;BME280;32423;45.398;10.874;2023-02-11T00:41:27;102795.69;;;4.18;40.36
46690;BME280;32423;45.398;10.874;2023-02-11T00:44:19;102796.03;;;3.48;40.10
46690;BME280;32423;45.398;10.874;2023-02-11T00:47:11;102791.34;;;2.14;42.78
46690;BME280;32423;45.398;10.874;2023-02-11T00:50:04;102795.28;;;1.99;43.37
46690;BME280;32423;45.398;10.874;2023-02-11T00:52:57;102797.78;;;2.00;43.57
46690;BME280;32423;45.398;10.874;2023-02-11T00:55:49;102799.00;;;2.18;43.78
46690;BME280;32423;45.398;10.874;2023-02-11T00:58:41;102790.41;;;2.73;42.52
46690;BME280;32423;45.398;10.874;2023-02-11T01:01:33;102805.00;;;2.90;42.17
46690;BME280;32423;45.398;10.874;2023-02-11T01:04:25;102796.00;;;3.16;41.69
46690;BME280;32423;45.398;10.874;2023-02-11T01:07:17;102791.63;;;3.22;41.08
46690;BME280;32423;45.398;10.874;2023-02-11T01:10:06;102788.09;;;3.28;41.11
46690;BME280;32423;45.398;10.874;2023-02-11T01:12:58;102790.31;;;3.37;40.46
46690;BME280;32423;45.398;10.874;2023-02-11T01:15:50;102785.44;;;3.53;40.41
46690;BME280;32423;45.398;10.874;2023-02-11T01:18:40;102784.47;;;3.72;41.02
46690;BME280;32423;45.398;10.874;2023-02-11T01:21:32;102782.19;;;3.75;39.94
46690;BME280;32423;45.398;10.874;2023-02-11T01:24:24;102782.22;;;4.18;39.45
46690;BME280;32423;45.398;10.874;2023-02-11T01:27:16;102786.91;;;4.05;40.98
46690;BME280;32423;45.398;10.874;2023-02-11T01:30:08;102784.63;;;4.02;41.14
46690;BME280;32423;45.398;10.874;2023-02-11T01:32:56;102774.53;;;3.97;40.44
46690;BME280;32423;45.398;10.874;2023-02-11T01:35:48;102778.94;;;3.67;40.43
46690;BME280;32423;45.398;10.874;2023-02-11T01:38:40;102780.34;;;3.44;41.00
46690;BME280;32423;45.398;10.874;2023-02-11T01:41:31;102780.25;;;3.58;40.99
46690;BME280;32423;45.398;10.874;2023-02-11T01:44:30;102787.16;;;3.72;41.01
46690;BME280;32423;45.398;10.874;2023-02-11T01:47:22;102779.75;;;3.92;41.40
46690;BME280;32423;45.398;10.874;2023-02-11T01:50:14;102772.09;;;3.39;41.65
46690;BME280;32423;45.398;10.874;2023-02-11T01:53:04;102767.16;;;3.61;41.77
46690;BME280;32423;45.398;10.874;2023-02-11T01:56:12;102763.56;;;3.74;42.50
46690;BME280;32423;45.398;10.874;2023-02-11T01:59:23;102768.19;;;3.35;41.73
46690;BME280;32423;45.398;10.874;2023-02-11T02:02:17;102770.19;;;3.47;41.84
46690;BME280;32423;45.398;10.874;2023-02-11T02:08:24;102768.41;;;3.90;41.26
46690;BME280;32423;45.398;10.874;2023-02-11T02:11:21;102756.81;;;3.90;41.15
46690;BME280;32423;45.398;10.874;2023-02-11T02:14:13;102767.66;;;3.52;42.54
46690;BME280;32423;45.398;10.874;2023-02-11T02:17:03;102768.13;;;3.73;41.89
46690;BME280;32423;45.398;10.874;2023-02-11T02:35:39;102765.41;;;2.73;43.27
46690;BME280;32423;45.398;10.874;2023-02-11T02:38:36;102756.53;;;3.10;43.02
46690;BME280;32423;45.398;10.874;2023-02-11T02:41:29;102760.69;;;3.44;43.87
46690;BME280;32423;45.398;10.874;2023-02-11T02:44:20;102744.56;;;3.69;42.50
46690;BME280;32423;45.398;10.874;2023-02-11T02:47:12;102740.94;;;3.57;41.14
46690;BME280;32423;45.398;10.874;2023-02-11T02:50:04;102743.03;;;3.79;41.23
46690;BME280;32423;45.398;10.874;2023-02-11T02:58:53;102720.06;;;3.27;41.02
46690;BME280;32423;45.398;10.874;2023-02-11T03:07:54;102716.31;;;2.59;43.15
46690;BME280;32423;45.398;10.874;2023-02-11T03:10:47;102717.53;;;3.01;43.53
46690;BME280;32423;45.398;10.874;2023-02-11T03:13:40;102716.50;;;3.02;42.13
46690;BME280;32423;45.398;10.874;2023-02-11T03:16:33;102721.63;;;2.66;43.93
46690;BME280;32423;45.398;10.874;2023-02-11T03:19:26;102727.63;;;2.68;43.70
46690;BME280;32423;45.398;10.874;2023-02-11T03:22:19;102728.75;;;2.91;44.22
46690;BME280;32423;45.398;10.874;2023-02-11T03:25:12;102727.31;;;2.89;43.23
46690;BME280;32423;45.398;10.874;2023-02-11T03:28:16;102720.97;;;2.77;43.48
46690;BME280;32423;45.398;10.874;2023-02-11T03:31:20;102713.38;;;2.67;44.66
46690;BME280;32423;45.398;10.874;2023-02-11T03:34:17;102712.25;;;2.88;43.13
46690;BME280;32423;45.398;10.874;2023-02-11T03:40:18;102700.09;;;3.10;42.48
46690;BME280;32423;45.398;10.874;2023-02-11T03:43:11;102698.09;;;2.68;43.27
46690;BME280;32423;45.398;10.874;2023-02-11T03:46:05;102692.44;;;2.76;43.68
46690;BME280;32423;45.398;10.874;2023-02-11T03:48:58;102695.44;;;2.99;43.93
46690;BME280;32423;45.398;10.874;2023-02-11T03:51:51;102698.34;;;2.97;43.84
46690;BME280;32423;45.398;10.874;2023-02-11T03:54:44;102695.25;;;2.94;44.14
46690;BME280;32423;45.398;10.874;2023-02-11T03:57:37;102700.41;;;1.21;45.88
46690;BME280;32423;45.398;10.874;2023-02-11T04:00:36;102697.47;;;1.88;46.15
46690;BME280;32423;45.398;10.874;2023-02-11T04:03:29;102700.34;;;2.06;45.56
46690;BME280;32423;45.398;10.874;2023-02-11T04:06:21;102697.66;;;2.13;45.48
46690;BME280;32423;45.398;10.874;2023-02-11T04:09:13;102693.53;;;2.04;44.66
46690;BME280;32423;45.398;10.874;2023-02-11T04:12:05;102690.88;;;1.91;45.27
46690;BME280;32423;45.398;10.874;2023-02-11T04:14:57;102700.09;;;2.21;44.25
46690;BME280;32423;45.398;10.874;2023-02-11T04:17:46;102704.28;;;2.04;44.25
46690;BME280;32423;45.398;10.874;2023-02-11T04:20:38;102683.25;;;1.94;44.70
46690;BME280;32423;45.398;10.874;2023-02-11T04:23:28;102677.03;;;1.94;44.69
46690;BME280;32423;45.398;10.874;2023-02-11T04:26:17;102683.03;;;1.96;44.97
46690;BME280;32423;45.398;10.874;2023-02-11T04:29:09;102687.09;;;2.25;43.74
46690;BME280;32423;45.398;10.874;2023-02-11T04:32:01;102668.03;;;2.39;43.20
46690;BME280;32423;45.398;10.874;2023-02-11T04:34:53;102666.22;;;2.33;43.83
46690;BME280;32423;45.398;10.874;2023-02-11T04:37:44;102678.59;;;2.34;43.83
46690;BME280;32423;45.398;10.874;2023-02-11T04:40:34;102670.53;;;2.34;44.06
46690;BME280;32423;45.398;10.874;2023-02-11T04:43:26;102666.56;;;1.92;43.82
46690;BME280;32423;45.398;10.874;2023-02-11T04:46:18;102662.34;;;2.23;44.29
46690;BME280;32423;45.398;10.874;2023-02-11T04:49:10;102668.53;;;2.17;44.03
46690;BME280;32423;45.398;10.874;2023-02-11T04:52:03;102663.44;;;2.02;44.01
46690;BME280;32423;45.398;10.874;2023-02-11T04:54:55;102669.25;;;1.79;45.40
46690;BME280;32423;45.398;10.874;2023-02-11T04:57:46;102661.63;;;1.69;44.15
46690;BME280;32423;45.398;10.874;2023-02-11T05:00:36;102665.13;;;1.70;44.18
46690;BME280;32423;45.398;10.874;2023-02-11T05:03:28;102665.16;;;1.50;44.60
46690;BME280;32423;45.398;10.874;2023-02-11T05:06:20;102666.38;;;1.61;44.59
46690;BME280;32423;45.398;10.874;2023-02-11T05:09:12;102670.06;;;1.80;44.79
46690;BME280;32423;45.398;10.874;2023-02-11T05:12:01;102669.47;;;1.78;44.50
46690;BME280;32423;45.398;10.874;2023-02-11T05:14:53;102671.91;;;1.86;44.70
46690;BME280;32423;45.398;10.874;2023-02-11T05:17:46;102666.75;;;1.91;43.46
46690;BME280;32423;45.398;10.874;2023-02-11T05:20:40;102669.44;;;1.91;43.97
46690;BME280;32423;45.398;10.874;2023-02-11T05:23:32;102654.88;;;2.31;43.60
46690;BME280;32423;45.398;10.874;2023-02-11T05:26:24;102659.97;;;2.39;43.48
46690;BME280;32423;45.398;10.874;2023-02-11T05:29:16;102668.03;;;1.16;45.27
46690;BME280;32423;45.398;10.874;2023-02-11T05:32:08;102661.13;;;2.05;46.44
46690;BME280;32423;45.398;10.874;2023-02-11T05:35:00;102671.94;;;1.73;43.86
46690;BME280;32423;45.398;10.874;2023-02-11T05:37:49;102669.25;;;1.33;44.15
46690;BME280;32423;45.398;10.874;2023-02-11T05:40:39;102664.31;;;1.30;45.06
46690;BME280;32423;45.398;10.874;2023-02-11T05:43:31;102656.84;;;1.98;44.69
46690;BME280;32423;45.398;10.874;2023-02-11T05:46:23;102662.09;;;2.31;44.04
46690;BME280;32423;45.398;10.874;2023-02-11T05:49:15;102657.78;;;2.23;43.72
46690;BME280;32423;45.398;10.874;2023-02-11T05:52:05;102665.53;;;2.44;43.89
46690;BME280;32423;45.398;10.874;2023-02-11T05:54:54;102663.09;;;2.36;43.10
46690;BME280;32423;45.398;10.874;2023-02-11T05:57:46;102656.53;;;2.19;44.10
46690;BME280;32423;45.398;10.874;2023-02-11T06:00:38;102653.41;;;2.35;43.36
46690;BME280;32423;45.398;10.874;2023-02-11T06:03:28;102654.50;;;2.21;44.01
46690;BME280;32423;45.398;10.874;2023-02-11T06:06:20;102641.16;;;2.52;43.88
46690;BME280;32423;45.398;10.874;2023-02-11T06:09:09;102646.03;;;2.69;43.45
46690;BME280;32423;45.398;10.874;2023-02-11T06:11:58;102651.91;;;2.39;42.56
46690;BME280;32423;45.398;10.874;2023-02-11T06:14:50;102646.44;;;2.14;42.74
46690;BME280;32423;45.398;10.874;2023-02-11T06:17:40;102640.94;;;2.03;44.16
46690;BME280;32423;45.398;10.874;2023-02-11T06:20:29;102640.53;;;2.50;46.60
46690;BME280;32423;45.398;10.874;2023-02-11T06:23:19;102636.53;;;2.15;42.92
46690;BME280;32423;45.398;10.874;2023-02-11T06:26:09;102641.56;;;2.49;46.65
46690;BME280;32423;45.398;10.874;2023-02-11T06:29:06;102641.88;;;2.66;44.70
46690;BME280;32423;45.398;10.874;2023-02-11T06:31:58;102634.63;;;2.73;45.60
46690;BME280;32423;45.398;10.874;2023-02-11T06:34:48;102637.09;;;2.30;42.57
46690;BME280;32423;45.398;10.874;2023-02-11T06:37:40;102634.59;;;2.42;42.94
46690;BME280;32423;45.398;10.874;2023-02-11T06:40:32;102632.94;;;2.34;44.13
46690;BME280;32423;45.398;10.874;2023-02-11T06:43:24;102632.41;;;2.19;43.16
46690;BME280;32423;45.398;10.874;2023-02-11T06:46:16;102635.97;;;2.06;43.83
46690;BME280;32423;45.398;10.874;2023-02-11T06:49:08;102643.63;;;1.90;43.94
46690;BME280;32423;45.398;10.874;2023-02-11T06:52:00;102643.47;;;1.58;44.75
46690;BME280;32423;45.398;10.874;2023-02-11T06:54:52;102646.78;;;1.67;45.82
46690;BME280;32423;45.398;10.874;2023-02-11T06:57:44;102649.91;;;1.57;45.10
46690;BME280;32423;45.398;10.874;2023-02-11T07:00:36;102657.88;;;1.84;44.67
46690;BME280;32423;45.398;10.874;2023-02-11T07:03:31;102650.00;;;2.02;45.96
46690;BME280;32423;45.398;10.874;2023-02-11T07:06:23;102645.78;;;2.26;46.70
46690;BME280;32423;45.398;10.874;2023-02-11T07:09:15;102652.91;;;1.94;44.46
46690;BME280;32423;45.398;10.874;2023-02-11T07:12:07;102658.34;;;1.54;45.26
46690;BME280;32423;45.398;10.874;2023-02-11T07:14:59;102645.94;;;1.80;45.89
46690;BME280;32423;45.398;10.874;2023-02-11T07:17:44;102649.19;;;1.88;45.44
46690;BME280;32423;45.398;10.874;2023-02-11T07:20:36;102653.63;;;1.37;47.17
46690;BME280;32423;45.398;10.874;2023-02-11T07:23:28;102662.81;;;2.00;46.16
46690;BME280;32423;45.398;10.874;2023-02-11T07:26:19;102659.41;;;2.24;46.04
46690;BME280;32423;45.398;10.874;2023-02-11T07:29:08;102664.38;;;2.27;45.97
46690;BME280;32423;45.398;10.874;2023-02-11T07:31:58;102674.56;;;2.56;46.65
46690;BME280;32423;45.398;10.874;2023-02-11T07:34:50;102668.00;;;2.52;44.95
46690;BME280;32423;45.398;10.874;2023-02-11T07:37:39;102678.41;;;2.29;45.27
46690;BME280;32423;45.398;10.874;2023-02-11T07:40:31;102680.44;;;2.40;44.78
46690;BME280;32423;45.398;10.874;2023-02-11T07:43:20;102674.66;;;2.43;45.16
46690;BME280;32423;45.398;10.874;2023-02-11T07:46:16;102669.88;;;2.45;46.03
46690;BME280;32423;45.398;10.874;2023-02-11T07:49:05;102669.13;;;2.70;45.75
46690;BME280;32423;45.398;10.874;2023-02-11T07:51:58;102667.00;;;2.34;45.86
46690;BME280;32423;45.398;10.874;2023-02-11T07:54:49;102673.09;;;2.16;47.72
46690;BME280;32423;45.398;10.874;2023-02-11T07:57:41;102674.75;;;2.17;48.04
46690;BME280;32423;45.398;10.874;2023-02-11T08:00:33;102673.09;;;2.61;46.81
46690;BME280;32423;45.398;10.874;2023-02-11T08:03:25;102670.13;;;2.37;45.44
46690;BME280;32423;45.398;10.874;2023-02-11T08:06:17;102675.31;;;2.77;45.12
46690;BME280;32423;45.398;10.874;2023-02-11T08:09:06;102673.13;;;2.54;46.10
46690;BME280;32423;45.398;10.874;2023-02-11T08:11:58;102679.78;;;2.89;45.63
46690;BME280;32423;45.398;10.874;2023-02-11T08:14:50;102675.91;;;2.79;45.68
46690;BME280;32423;45.398;10.874;2023-02-11T08:17:40;102678.75;;;2.46;47.17
46690;BME280;32423;45.398;10.874;2023-02-11T08:20:32;102681.28;;;2.34;47.15
46690;BME280;32423;45.398;10.874;2023-02-11T08:23:24;102682.16;;;2.15;47.77
46690;BME280;32423;45.398;10.874;2023-02-11T08:26:14;102684.25;;;2.13;48.75
46690;BME280;32423;45.398;10.874;2023-02-11T08:29:08;102678.06;;;2.12;48.17
46690;BME280;32423;45.398;10.874;2023-02-11T08:32:01;102678.81;;;2.26;48.70
46690;BME280;32423;45.398;10.874;2023-02-11T08:34:51;102677.38;;;2.30;47.86
46690;BME280;32423;45.398;10.874;2023-02-11T08:37:41;102676.97;;;2.27;49.27
46690;BME280;32423;45.398;10.874;2023-02-11T08:40:30;102688.66;;;2.52;47.87
46690;BME280;32423;45.398;10.874;2023-02-11T08:43:22;102684.94;;;2.53;48.06
46690;BME280;32423;45.398;10.874;2023-02-11T08:46:13;102685.94;;;2.58;48.73
46690;BME280;32423;45.398;10.874;2023-02-11T08:49:05;102678.16;;;2.82;47.26
46690;BME280;32423;45.398;10.874;2023-02-11T08:51:57;102679.94;;;2.63;49.40
46690;BME280;32423;45.398;10.874;2023-02-11T08:54:51;102677.78;;;2.78;48.64
46690;BME280;32423;45.398;10.874;2023-02-11T08:57:43;102689.09;;;2.87;49.15
46690;BME280;32423;45.398;10.874;2023-02-11T09:00:31;102695.84;;;2.96;48.82
46690;BME280;32423;45.398;10.874;2023-02-11T09:03:18;102700.00;;;2.98;49.51
46690;BME280;32423;45.398;10.874;2023-02-11T09:06:10;102705.56;;;3.28;48.72
46690;BME280;32423;45.398;10.874;2023-02-11T09:09:00;102710.31;;;3.58;47.93
46690;BME280;32423;45.398;10.874;2023-02-11T09:11:49;102709.47;;;3.82;47.08
46690;BME280;32423;45.398;10.874;2023-02-11T09:14:39;102707.94;;;3.43;48.11
46690;BME280;32423;45.398;10.874;2023-02-11T09:17:29;102713.38;;;3.36;48.58
46690;BME280;32423;45.398;10.874;2023-02-11T09:20:18;102702.69;;;3.55;48.42
46690;BME280;32423;45.398;10.874;2023-02-11T09:23:10;102708.09;;;3.73;48.33
46690;BME280;32423;45.398;10.874;2023-02-11T09:26:04;102710.09;;;3.84;48.41
46690;BME280;32423;45.398;10.874;2023-02-11T09:28:56;102713.22;;;3.56;49.07
46690;BME280;32423;45.398;10.874;2023-02-11T09:31:46;102705.88;;;3.70;49.66
46690;BME280;32423;45.398;10.874;2023-02-11T09:34:35;102698.88;;;3.87;48.79
46690;BME280;32423;45.398;10.874;2023-02-11T09:37:24;102702.94;;;3.96;49.45
46690;BME280;32423;45.398;10.874;2023-02-11T09:40:16;102701.13;;;4.08;48.61
46690;BME280;32423;45.398;10.874;2023-02-11T09:43:19;102696.06;;;4.00;50.68
46690;BME280;32423;45.398;10.874;2023-02-11T09:46:15;102689.03;;;4.17;50.72
46690;BME280;32423;45.398;10.874;2023-02-11T09:49:05;102698.69;;;4.25;50.50
46690;BME280;32423;45.398;10.874;2023-02-11T09:52:04;102703.97;;;4.13;50.06
46690;BME280;32423;45.398;10.874;2023-02-11T09:54:56;102712.16;;;4.25;50.32
46690;BME280;32423;45.398;10.874;2023-02-11T09:57:45;102715.13;;;4.17;50.71
46690;BME280;32423;45.398;10.874;2023-02-11T10:00:50;102705.56;;;4.39;50.22
46690;BME280;32423;45.398;10.874;2023-02-11T10:03:52;102716.50;;;4.44;49.79
46690;BME280;32423;45.398;10.874;2023-02-11T10:15:55;102708.22;;;5.05;46.93
46690;BME280;32423;45.398;10.874;2023-02-11T10:18:57;102720.41;;;4.78;47.09
46690;BME280;32423;45.398;10.874;2023-02-11T10:24:38;102704.59;;;4.52;46.78
46690;BME280;32423;45.398;10.874;2023-02-11T10:27:33;102706.38;;;4.58;46.48
46690;BME280;32423;45.398;10.874;2023-02-11T10:30:30;102710.59;;;4.84;45.75
46690;BME280;32423;45.398;10.874;2023-02-11T10:33:26;102705.88;;;5.09;45.30
46690;BME280;32423;45.398;10.874;2023-02-11T10:36:19;102699.84;;;5.25;45.38
46690;BME280;32423;45.398;10.874;2023-02-11T10:39:15;102704.22;;;5.38;45.60
46690;BME280;32423;45.398;10.874;2023-02-11T10:42:08;102709.75;;;5.43;46.12
46690;BME280;32423;45.398;10.874;2023-02-11T10:45:03;102712.09;;;5.74;48.50
46690;BME280;32423;45.398;10.874;2023-02-11T10:47:56;102706.03;;;5.79;46.90
46690;BME280;32423;45.398;10.874;2023-02-11T10:50:44;102700.28;;;5.64;47.54
46690;BME280;32423;45.398;10.874;2023-02-11T10:53:35;102698.38;;;5.64;48.29
46690;BME280;32423;45.398;10.874;2023-02-11T10:56:27;102694.75;;;5.70;49.08
46690;BME280;32423;45.398;10.874;2023-02-11T10:59:27;102693.59;;;5.78;48.66
46690;BME280;32423;45.398;10.874;2023-02-11T11:02:22;102689.97;;;5.84;47.53
46690;BME280;32423;45.398;10.874;2023-02-11T11:05:15;102682.13;;;5.94;46.51
46690;BME280;32423;45.398;10.874;2023-02-11T11:08:06;102665.88;;;6.06;48.32
46690;BME280;32423;45.398;10.874;2023-02-11T11:11:03;102664.00;;;6.18;48.02
46690;BME280;32423;45.398;10.874;2023-02-11T11:14:02;102659.25;;;6.25;47.40
46690;BME280;32423;45.398;10.874;2023-02-11T11:16:54;102659.38;;;6.30;47.07
46690;BME280;32423;45.398;10.874;2023-02-11T11:19:43;102647.75;;;6.69;47.80
46690;BME280;32423;45.398;10.874;2023-02-11T11:22:33;102636.53;;;6.77;46.58
46690;BME280;32423;45.398;10.874;2023-02-11T11:25:25;102641.63;;;6.74;46.29
46690;BME280;32423;45.398;10.874;2023-02-11T11:28:20;102635.06;;;6.70;46.17
46690;BME280;32423;45.398;10.874;2023-02-11T11:31:14;102619.47;;;7.05;45.99
46690;BME280;32423;45.398;10.874;2023-02-11T11:34:13;102612.00;;;6.96;46.27
46690;BME280;32423;45.398;10.874;2023-02-11T11:37:25;102609.81;;;7.64;44.37
46690;BME280;32423;45.398;10.874;2023-02-11T11:46:06;102610.88;;;7.80;43.37
46690;BME280;32423;45.398;10.874;2023-02-11T11:52:10;102603.50;;;7.59;43.61
46690;BME280;32423;45.398;10.874;2023-02-11T11:55:09;102603.63;;;7.86;43.81
46690;BME280;32423;45.398;10.874;2023-02-11T11:58:02;102603.16;;;7.72;43.81
46690;BME280;32423;45.398;10.874;2023-02-11T12:00:56;102600.13;;;7.68;44.25
46690;BME280;32423;45.398;10.874;2023-02-11T12:04:00;102598.00;;;7.70;43.51
46690;BME280;32423;45.398;10.874;2023-02-11T12:09:55;102592.44;;;7.60;44.56
46690;BME280;32423;45.398;10.874;2023-02-11T12:12:58;102588.25;;;7.69;43.99
46690;BME280;32423;45.398;10.874;2023-02-11T12:21:59;102569.84;;;7.93;44.07
46690;BME280;32423;45.398;10.874;2023-02-11T12:24:57;102568.50;;;8.12;42.93
46690;BME280;32423;45.398;10.874;2023-02-11T12:28:02;102565.97;;;8.28;42.38
46690;BME280;32423;45.398;10.874;2023-02-11T12:39:51;102551.66;;;8.32;41.02
46690;BME280;32423;45.398;10.874;2023-02-11T12:46:09;102547.91;;;8.38;40.40
46690;BME280;32423;45.398;10.874;2023-02-11T12:55:08;102542.66;;;9.17;38.81
46690;BME280;32423;45.398;10.874;2023-02-11T12:58:01;102543.03;;;8.99;39.14
46690;BME280;32423;45.398;10.874;2023-02-11T13:00:52;102534.81;;;9.26;38.10
46690;BME280;32423;45.398;10.874;2023-02-11T13:03:52;102533.63;;;9.49;37.40
46690;BME280;32423;45.398;10.874;2023-02-11T13:06:46;102526.84;;;9.51;37.40
46690;BME280;32423;45.398;10.874;2023-02-11T13:09:37;102514.78;;;9.84;36.42
46690;BME280;32423;45.398;10.874;2023-02-11T13:12:27;102518.84;;;9.86;35.91
46690;BME280;32423;45.398;10.874;2023-02-11T13:15:37;102518.38;;;10.05;35.14
46690;BME280;32423;45.398;10.874;2023-02-11T13:33:18;102508.34;;;10.15;32.40
46690;BME280;32423;45.398;10.874;2023-02-11T13:36:10;102503.25;;;10.34;31.17
46690;BME280;32423;45.398;10.874;2023-02-11T13:39:03;102490.22;;;10.66;30.97
46690;BME280;32423;45.398;10.874;2023-02-11T13:42:00;102487.22;;;10.73;30.24
46690;BME280;32423;45.398;10.874;2023-02-11T13:44:52;102479.06;;;10.68;29.25
46690;BME280;32423;45.398;10.874;2023-02-11T13:47:45;102477.97;;;10.89;29.73
46690;BME280;32423;45.398;10.874;2023-02-11T13:50:43;102483.16;;;10.81;29.16
46690;BME280;32423;45.398;10.874;2023-02-11T13:53:45;102467.63;;;10.81;26.53
46690;BME280;32423;45.398;10.874;2023-02-11T13:56:39;102475.81;;;10.56;27.75
46690;BME280;32423;45.398;10.874;2023-02-11T14:02:28;102469.25;;;10.87;28.10
46690;BME280;32423;45.398;10.874;2023-02-11T14:05:36;102465.72;;;10.92;29.23
46690;BME280;32423;45.398;10.874;2023-02-11T14:08:57;102470.03;;;10.98;29.57
46690;BME280;32423;45.398;10.874;2023-02-11T14:11:53;102469.78;;;10.94;28.55
46690;BME280;32423;45.398;10.874;2023-02-11T14:21:29;102469.75;;;11.14;27.05
46690;BME280;32423;45.398;10.874;2023-02-11T14:33:25;102451.78;;;11.03;26.63
46690;BME280;32423;45.398;10.874;2023-02-11T14:42:33;102438.19;;;11.03;25.88
46690;BME280;32423;45.398;10.874;2023-02-11T14:45:27;102436.31;;;10.89;25.31
46690;BME280;32423;45.398;10.874;2023-02-11T14:48:19;102435.47;;;10.93;25.92
46690;BME280;32423;45.398;10.874;2023-02-11T14:54:18;102443.09;;;11.01;26.30
46690;BME280;32423;45.398;10.874;2023-02-11T14:57:17;102435.19;;;11.05;26.46
46690;BME280;32423;45.398;10.874;2023-02-11T15:00:17;102429.56;;;10.56;27.05
46690;BME280;32423;45.398;10.874;2023-02-11T15:03:22;102426.53;;;10.72;27.38
46690;BME280;32423;45.398;10.874;2023-02-11T15:06:17;102429.81;;;10.59;27.42
46690;BME280;32423;45.398;10.874;2023-02-11T15:12:09;102423.56;;;10.59;28.13
46690;BME280;32423;45.398;10.874;2023-02-11T15:15:10;102420.28;;;10.52;28.46
46690;BME280;32423;45.398;10.874;2023-02-11T15:18:00;102411.88;;;10.63;28.43
46690;BME280;32423;45.398;10.874;2023-02-11T15:20:53;102414.31;;;10.55;28.87
46690;BME280;32423;45.398;10.874;2023-02-11T15:23:43;102417.03;;;10.70;28.53
46690;BME280;32423;45.398;10.874;2023-02-11T15:26:46;102415.41;;;10.69;28.25
46690;BME280;32423;45.398;10.874;2023-02-11T15:29:47;102410.53;;;10.41;28.85
46690;BME280;32423;45.398;10.874;2023-02-11T15:32:42;102402.91;;;10.33;29.08
46690;BME280;32423;45.398;10.874;2023-02-11T15:35:35;102406.19;;;10.29;29.85
46690;BME280;32423;45.398;10.874;2023-02-11T15:38:26;102404.81;;;10.27;30.08
46690;BME280;32423;45.398;10.874;2023-02-11T15:44:30;102399.66;;;10.36;29.91
46690;BME280;32423;45.398;10.874;2023-02-11T15:47:22;102389.31;;;10.17;29.06
46690;BME280;32423;45.398;10.874;2023-02-11T15:50:18;102403.47;;;10.19;29.86
46690;BME280;32423;45.398;10.874;2023-02-11T15:53:22;102400.19;;;10.27;29.76
46690;BME280;32423;45.398;10.874;2023-02-11T15:56:19;102404.22;;;10.05;30.58
46690;BME280;32423;45.398;10.874;2023-02-11T16:02:04;102396.94;;;10.41;30.91
46690;BME280;32423;45.398;10.874;2023-02-11T16:04:59;102387.41;;;10.23;32.07
46690;BME280;32423;45.398;10.874;2023-02-11T16:07:51;102390.31;;;9.86;33.23
46690;BME280;32423;45.398;10.874;2023-02-11T16:10:51;102391.16;;;10.02;33.42
46690;BME280;32423;45.398;10.874;2023-02-11T16:13:47;102400.44;;;10.26;33.26
46690;BME280;32423;45.398;10.874;2023-02-11T16:16:36;102393.09;;;10.37;33.11
46690;BME280;32423;45.398;10.874;2023-02-11T16:19:28;102388.19;;;10.03;33.97
46690;BME280;32423;45.398;10.874;2023-02-11T16:22:20;102395.31;;;10.29;33.72
46690;BME280;32423;45.398;10.874;2023-02-11T16:25:19;102394.22;;;10.20;33.64
46690;BME280;32423;45.398;10.874;2023-02-11T16:28:12;102394.75;;;10.17;33.48
46690;BME280;32423;45.398;10.874;2023-02-11T16:31:06;102392.44;;;9.59;33.66
46690;BME280;32423;45.398;10.874;2023-02-11T16:33:55;102399.09;;;9.26;34.73
46690;BME280;32423;45.398;10.874;2023-02-11T16:36:47;102393.78;;;8.94;35.29
46690;BME280;32423;45.398;10.874;2023-02-11T16:39:40;102391.78;;;9.26;34.96
46690;BME280;32423;45.398;10.874;2023-02-11T16:42:32;102392.88;;;9.30;35.04
46690;BME280;32423;45.398;10.874;2023-02-11T16:45:24;102388.63;;;9.50;34.90
46690;BME280;32423;45.398;10.874;2023-02-11T16:48:13;102392.50;;;9.74;34.54
46690;BME280;32423;45.398;10.874;2023-02-11T16:51:06;102398.97;;;9.63;34.48
46690;BME280;32423;45.398;10.874;2023-02-11T16:53:58;102399.56;;;9.70;34.88
46690;BME280;32423;45.398;10.874;2023-02-11T16:56:47;102400.53;;;9.43;34.52
46690;BME280;32423;45.398;10.874;2023-02-11T16:59:35;102398.81;;;9.22;34.76
46690;BME280;32423;45.398;10.874;2023-02-11T17:02:28;102395.50;;;9.10;35.66
46690;BME280;32423;45.398;10.874;2023-02-11T17:05:21;102388.00;;;9.27;35.29
46690;BME280;32423;45.398;10.874;2023-02-11T17:08:13;102388.81;;;9.33;35.22
46690;BME280;32423;45.398;10.874;2023-02-11T17:11:02;102402.69;;;9.36;35.19
46690;BME280;32423;45.398;10.874;2023-02-11T17:13:54;102394.00;;;9.34;35.30
46690;BME280;32423;45.398;10.874;2023-02-11T17:16:44;102397.56;;;9.50;35.29